Time;durP1;ratioP1;P1;durP2;ratioP2;P2;SDS_P1;SDS_P2;PMS_P1;PMS_P2;Temp;Humidity;BMP_temperature;BMP_pressure;BME280_temperature;BME280_humidity;BME280_pressure;Samples;Min_cycle;Max_cycle;Signal;HPM_P1;HPM_P2
2023/08/17 00:00:38;;;;;;;12.40;9.70;;;;;;;20.42;72.95;97528.42;105441;1254;96684;-83
2023/08/17 00:03:25;;;;;;;10.80;9.00;;;;;;;20.43;72.94;97527.52;105722;1267;95899;-85
2023/08/17 00:05:53;;;;;;;10.10;8.90;;;;;;;20.45;72.78;97529.59;105579;1256;108927;-83
2023/08/17 00:08:21;;;;;;;14.20;9.20;;;;;;;20.45;72.99;97528.33;105504;1257;102172;-84
2023/08/17 00:10:48;;;;;;;10.90;8.60;;;;;;;20.41;73.07;97531.34;105885;1259;99040;-83
2023/08/17 00:13:16;;;;;;;11.70;8.20;;;;;;;20.41;73.17;97525.10;105740;1257;96783;-85
2023/08/17 00:15:45;;;;;;;10.80;8.50;;;;;;;20.38;73.23;97526.41;105388;1257;95835;-82
2023/08/17 00:18:13;;;;;;;9.70;8.60;;;;;;;20.33;73.22;97519.73;104989;1254;109331;-82
2023/08/17 00:20:41;;;;;;;11.30;8.50;;;;;;;20.32;73.57;97520.98;105144;1254;102502;-81
2023/08/17 00:23:09;;;;;;;11.80;8.10;;;;;;;20.26;73.39;97521.42;105129;1266;98711;-85
2023/08/17 00:25:36;;;;;;;10.50;8.90;;;;;;;20.24;73.45;97524.64;105126;1259;96216;-83
2023/08/17 00:28:04;;;;;;;10.10;8.20;;;;;;;20.22;73.47;97526.11;105219;1256;95793;-85
2023/08/17 00:30:35;;;;;;;10.80;8.60;;;;;;;20.21;73.54;97523.75;105100;1257;101704;-82
2023/08/17 00:33:03;;;;;;;9.70;8.10;;;;;;;20.20;73.57;97527.80;105126;1254;102097;-80
2023/08/17 00:35:32;;;;;;;10.30;8.00;;;;;;;20.19;73.41;97527.42;105206;1265;98732;-84
2023/08/17 00:38:01;;;;;;;10.30;7.90;;;;;;;20.17;73.46;97525.05;105234;1257;96186;-83
2023/08/17 00:40:28;;;;;;;10.00;8.20;;;;;;;20.14;73.35;97525.02;105239;1256;96952;-82
2023/08/17 00:42:56;;;;;;;9.80;8.30;;;;;;;20.14;73.32;97526.92;105308;1261;101607;-81
2023/08/17 00:45:24;;;;;;;12.70;7.80;;;;;;;20.11;73.52;97529.38;105314;1257;102295;-81
2023/08/17 00:47:55;;;;;;;10.00;8.30;;;;;;;20.06;73.52;97523.87;105007;1260;108992;-81
2023/08/17 00:50:24;;;;;;;11.60;7.80;;;;;;;20.06;73.90;97527.87;104879;1262;96661;-80
2023/08/17 00:52:54;;;;;;;9.60;7.80;;;;;;;20.00;73.92;97530.66;105246;1257;97201;-83
2023/08/17 00:55:21;;;;;;;9.10;7.80;;;;;;;19.98;73.84;97528.61;105180;1256;101973;-82
2023/08/17 00:57:49;;;;;;;8.90;8.10;;;;;;;19.97;74.00;97526.04;105172;1256;102318;-82
2023/08/17 01:00:17;;;;;;;10.50;9.00;;;;;;;19.98;73.79;97529.81;105170;1267;110580;-84
2023/08/17 01:02:45;;;;;;;9.20;8.30;;;;;;;19.95;74.34;97530.84;105085;1270;95914;-83
2023/08/17 01:05:13;;;;;;;11.50;8.90;;;;;;;19.88;74.24;97531.71;105172;1257;95854;-84
2023/08/17 01:07:41;;;;;;;13.80;9.10;;;;;;;19.88;74.39;97532.26;105164;1253;101464;-81
2023/08/17 01:10:10;;;;;;;11.40;8.90;;;;;;;19.89;74.45;97531.16;105199;1264;102226;-84
2023/08/17 01:12:48;;;;;;;10.60;8.60;;;;;;;19.91;74.57;97528.48;104869;1260;100706;-84
2023/08/17 01:15:22;;;;;;;12.50;10.80;;;;;;;19.88;74.70;97529.84;105056;1256;95908;-82
2023/08/17 01:18:06;;;;;;;18.20;13.50;;;;;;;19.86;74.59;97532.41;105180;1254;95857;-81
2023/08/17 01:20:35;;;;;;;12.00;9.30;;;;;;;19.87;75.08;97534.71;104900;1260;101668;-81
2023/08/17 01:23:07;;;;;;;16.30;11.70;;;;;;;19.85;75.27;97530.31;105055;1260;102224;-85
2023/08/17 01:25:36;;;;;;;13.50;10.60;;;;;;;19.84;75.21;97536.28;104933;1264;101852;-81
2023/08/17 01:28:05;;;;;;;11.00;9.70;;;;;;;19.84;75.10;97541.38;105192;1266;96100;-84
2023/08/17 01:30:56;;;;;;;10.70;9.50;;;;;;;19.84;75.31;97537.76;105095;1257;95832;-83
2023/08/17 01:33:32;;;;;;;12.40;10.90;;;;;;;19.84;75.25;97541.15;105152;1266;111068;-84
2023/08/17 01:36:13;;;;;;;13.10;11.30;;;;;;;19.83;75.42;97544.77;105159;1257;102324;-81
2023/08/17 01:38:41;;;;;;;14.70;11.40;;;;;;;19.84;75.20;97552.59;105231;1268;99259;-81
2023/08/17 02:12:35;;;;;;;11.00;9.80;;;;;;;20.01;76.11;97535.81;105568;1273;98527;-80
2023/08/17 02:15:21;;;;;;;;;;;;;;;19.97;75.98;97528.61;106130;1258;97197;-80
2023/08/17 02:18:30;;;;;;;11.30;9.40;;;;;;;19.93;76.38;97521.58;106504;1262;96991;-79
2023/08/17 02:21:37;;;;;;;11.20;9.50;;;;;;;19.83;76.98;97519.90;105877;1258;98470;-80
2023/08/17 02:24:22;;;;;;;12.90;10.50;;;;;;;19.64;77.79;97524.47;105187;1266;101214;-80
2023/08/17 02:27:18;;;;;;;13.40;9.70;;;;;;;19.49;77.85;97526.66;104742;1270;98913;-80
2023/08/17 02:30:18;;;;;;;13.30;9.50;;;;;;;19.46;77.70;97530.52;104732;1266;96045;-77
2023/08/17 02:33:15;;;;;;;10.50;9.50;;;;;;;19.48;77.71;97533.23;104513;1266;96289;-79
2023/08/17 02:36:22;;;;;;;10.40;9.50;;;;;;;19.49;77.91;97536.31;104565;1267;100913;-78
2023/08/17 03:21:50;;;;;;;12.20;9.00;;;;;;;19.53;78.41;97566.74;105478;1265;98245;-82
2023/08/17 03:24:16;;;;;;;12.40;9.20;;;;;;;19.51;78.40;97568.64;106944;1249;100082;-79
2023/08/17 03:26:42;;;;;;;10.70;8.70;;;;;;;19.49;78.55;97570.77;106730;1257;95837;-80
2023/08/17 03:29:09;;;;;;;12.00;9.00;;;;;;;19.45;78.57;97573.77;106746;1257;95873;-81
2023/08/17 03:31:36;;;;;;;10.70;9.00;;;;;;;19.44;78.51;97578.05;106838;1244;95992;-78
2023/08/17 03:34:02;;;;;;;12.40;9.30;;;;;;;19.43;78.68;97573.95;106763;1249;109643;-80
2023/08/17 03:36:28;;;;;;;10.80;9.70;;;;;;;19.44;78.49;97579.52;106769;1251;95775;-79
2023/08/17 03:38:55;;;;;;;12.60;9.40;;;;;;;19.44;78.66;97578.52;106775;1249;96093;-84
2023/08/17 03:41:23;;;;;;;12.50;8.80;;;;;;;19.43;78.59;97584.88;106989;1251;95903;-80
2023/08/17 03:43:49;;;;;;;9.60;8.70;;;;;;;19.41;78.81;97584.88;107007;1257;102151;-81
2023/08/17 03:46:16;;;;;;;10.80;8.80;;;;;;;19.36;78.72;97584.50;107221;1246;95891;-81
2023/08/17 03:54:47;;;;;;;10.90;9.60;;;;;;;19.24;78.96;97584.02;102115;1295;636024;-82
2023/08/17 03:57:15;;;;;;;10.70;9.60;;;;;;;19.25;79.29;97585.52;104448;1266;95897;-79
2023/08/17 03:59:42;;;;;;;12.90;9.10;;;;;;;19.28;79.21;97586.36;104495;1270;96790;-82
2023/08/17 04:02:10;;;;;;;11.40;9.40;;;;;;;19.30;79.27;97583.81;104425;1271;98499;-81
2023/08/17 04:04:38;;;;;;;13.50;9.60;;;;;;;19.31;79.23;97581.36;104432;1267;100673;-80
2023/08/17 04:07:06;;;;;;;12.80;10.50;;;;;;;19.29;79.49;97581.61;104308;1271;100884;-80
2023/08/17 04:09:34;;;;;;;12.80;10.20;;;;;;;19.24;79.56;97580.41;104623;1277;111720;-82
2023/08/17 04:12:04;;;;;;;14.90;9.90;;;;;;;19.23;79.49;97581.28;104604;1267;95877;-81
2023/08/17 04:14:32;;;;;;;14.10;10.80;;;;;;;19.24;79.53;97581.50;104370;1264;100113;-81
2023/08/17 04:17:00;;;;;;;14.60;9.70;;;;;;;19.24;79.49;97582.92;104771;1261;102146;-82
2023/08/17 04:19:27;;;;;;;11.80;10.60;;;;;;;19.24;79.72;97586.27;104760;1256;100691;-80
2023/08/17 04:21:55;;;;;;;13.80;10.30;;;;;;;19.24;79.62;97587.91;104764;1272;96694;-81
2023/08/17 04:24:23;;;;;;;13.10;10.70;;;;;;;19.26;79.79;97591.05;104731;1261;96839;-80
2023/08/17 04:26:51;;;;;;;11.50;10.30;;;;;;;19.26;79.81;97592.05;104813;1256;101517;-82
2023/08/17 04:29:18;;;;;;;12.70;11.40;;;;;;;19.28;79.79;97591.61;104826;1261;102384;-81
2023/08/17 04:31:46;;;;;;;12.70;11.30;;;;;;;19.30;79.85;97592.57;104841;1260;100755;-80
2023/08/17 04:34:14;;;;;;;12.90;11.50;;;;;;;19.32;79.81;97594.71;104723;1261;95868;-82
2023/08/17 04:36:42;;;;;;;12.20;10.90;;;;;;;19.34;79.80;97595.26;104963;1260;95816;-81
2023/08/17 04:39:10;;;;;;;12.00;10.60;;;;;;;19.36;79.80;97597.73;104764;1261;109355;-81
2023/08/17 04:41:37;;;;;;;11.90;10.80;;;;;;;19.38;79.93;97599.35;104764;1275;102300;-82
2023/08/17 04:44:05;;;;;;;14.80;11.40;;;;;;;19.39;79.76;97603.46;104900;1272;108396;-80
2023/08/17 04:46:33;;;;;;;13.40;10.50;;;;;;;19.38;80.09;97608.33;104906;1271;95825;-81
2023/08/17 04:49:01;;;;;;;15.40;11.50;;;;;;;19.39;80.11;97614.70;104692;1259;95856;-82
2023/08/17 04:51:28;;;;;;;14.00;10.00;;;;;;;19.41;80.26;97615.30;104803;1271;110619;-82
2023/08/17 04:53:56;;;;;;;11.70;10.40;;;;;;;19.42;80.34;97614.00;104774;1260;102234;-80
2023/08/17 04:56:24;;;;;;;14.30;9.80;;;;;;;19.44;80.33;97614.56;104849;1257;100737;-82
2023/08/17 04:58:51;;;;;;;11.60;10.40;;;;;;;19.48;80.19;97612.84;105026;1257;96784;-82
2023/08/17 05:01:19;;;;;;;11.10;10.00;;;;;;;19.49;80.14;97613.80;105059;1254;95845;-82
2023/08/17 05:03:47;;;;;;;11.90;10.10;;;;;;;19.53;80.31;97611.59;105130;1257;102017;-82
2023/08/17 05:06:17;;;;;;;12.90;10.00;;;;;;;19.56;80.30;97609.57;105212;1257;102125;-81
2023/08/17 05:08:44;;;;;;;12.20;10.70;;;;;;;19.59;80.33;97609.38;105053;1257;100514;-81
2023/08/17 05:11:12;;;;;;;16.30;10.70;;;;;;;19.62;80.32;97605.40;105113;1257;95854;-80
2023/08/17 05:13:40;;;;;;;16.50;12.20;;;;;;;19.65;80.13;97607.56;105143;1269;95915;-82
2023/08/17 05:16:07;;;;;;;16.40;12.50;;;;;;;19.69;80.29;97605.44;105208;1254;101684;-82
2023/08/17 05:18:35;;;;;;;16.50;12.80;;;;;;;19.73;80.41;97603.88;105080;1267;102087;-83
2023/08/17 05:21:02;;;;;;;17.60;13.60;;;;;;;19.76;80.28;97603.02;105044;1254;106916;-82
2023/08/17 05:23:30;;;;;;;18.90;13.70;;;;;;;19.80;80.22;97601.34;105129;1257;95806;-81
2023/08/17 05:25:58;;;;;;;17.20;12.80;;;;;;;19.84;80.07;97594.73;105133;1257;96678;-83
2023/08/17 05:28:26;;;;;;;16.10;12.80;;;;;;;19.87;79.87;97597.11;105126;1256;109511;-82
2023/08/17 05:30:54;;;;;;;14.10;12.60;;;;;;;19.90;79.83;97599.16;105102;1257;100284;-80
2023/08/17 05:33:22;;;;;;;18.30;12.80;;;;;;;19.91;79.59;97595.27;105198;1257;108371;-80
2023/08/17 05:35:55;;;;;;;16.90;12.60;;;;;;;19.93;79.48;97594.73;105084;1254;95806;-83
2023/08/17 05:38:22;;;;;;;21.40;13.00;;;;;;;19.96;79.21;97593.91;105046;1254;96791;-82
2023/08/17 05:40:59;;;;;;;16.90;12.50;;;;;;;19.98;79.26;97601.21;105091;1256;101592;-83
2023/08/17 05:43:27;;;;;;;18.10;12.50;;;;;;;20.00;79.29;97601.56;105069;1252;102104;-83
2023/08/17 05:45:55;;;;;;;15.20;12.20;;;;;;;20.02;79.05;97600.98;105044;1268;100957;-81
2023/08/17 05:48:23;;;;;;;21.00;13.30;;;;;;;20.05;78.88;97598.07;104910;1258;95810;-82
2023/08/17 05:50:51;;;;;;;20.30;13.50;;;;;;;20.08;78.96;97601.42;105057;1257;96911;-81
2023/08/17 05:53:18;;;;;;;21.30;12.70;;;;;;;20.10;78.84;97603.96;105146;1257;101461;-80
2023/08/17 05:55:46;;;;;;;23.20;14.60;;;;;;;20.12;78.92;97607.75;105141;1257;102309;-83
2023/08/17 05:58:14;;;;;;;19.30;13.60;;;;;;;20.17;78.98;97608.15;105113;1257;100568;-84
2023/08/17 06:00:41;;;;;;;18.10;12.50;;;;;;;20.19;78.65;97607.55;105162;1257;96876;-80
2023/08/17 06:03:09;;;;;;;16.80;12.30;;;;;;;20.22;78.32;97607.08;105309;1264;95810;-81
2023/08/17 06:05:37;;;;;;;17.70;12.80;;;;;;;20.25;78.30;97610.55;105210;1256;101729;-83
2023/08/17 06:08:05;;;;;;;20.40;12.20;;;;;;;20.28;78.12;97609.19;105125;1257;109483;-81
2023/08/17 06:10:33;;;;;;;16.50;12.40;;;;;;;20.30;77.73;97609.13;105142;1255;109419;-80
2023/08/17 06:13:00;;;;;;;17.40;12.40;;;;;;;20.32;77.64;97608.44;105194;1268;96178;-81
2023/08/17 06:15:28;;;;;;;14.60;11.60;;;;;;;20.36;77.60;97609.13;108982;1250;93494;-81
2023/08/17 06:17:56;;;;;;;13.80;11.60;;;;;;;20.40;77.66;97604.05;108890;1250;99672;-84
2023/08/17 06:20:24;;;;;;;17.50;11.00;;;;;;;20.44;77.79;97604.94;108918;1250;100485;-83
2023/08/17 06:22:52;;;;;;;12.70;11.10;;;;;;;20.49;77.61;97602.77;108942;1250;98883;-81
2023/08/17 06:25:20;;;;;;;14.40;10.40;;;;;;;20.55;77.62;97604.97;108887;1250;93513;-82
2023/08/17 06:27:50;;;;;;;12.10;10.70;;;;;;;20.61;77.52;97602.52;108816;1251;93859;-82
2023/08/17 06:30:18;;;;;;;16.60;10.40;;;;;;;20.67;77.33;97602.64;108901;1250;101087;-83
2023/08/17 06:32:45;;;;;;;13.20;10.50;;;;;;;20.75;76.97;97602.44;108804;1252;99999;-83
2023/08/17 06:35:13;;;;;;;11.20;9.70;;;;;;;20.81;76.62;97601.73;108793;1252;100203;-84
2023/08/17 06:37:41;;;;;;;15.90;10.00;;;;;;;20.88;76.40;97597.13;108761;1252;93484;-81
2023/08/17 06:40:10;;;;;;;14.50;9.50;;;;;;;20.94;76.29;97595.16;108828;1252;93541;-83
2023/08/17 06:42:37;;;;;;;10.20;9.20;;;;;;;21.00;75.99;97589.08;108859;1253;99915;-84
2023/08/17 06:45:06;;;;;;;11.30;9.10;;;;;;;21.08;75.83;97590.95;108780;1252;100306;-82
2023/08/17 06:47:34;;;;;;;10.00;8.80;;;;;;;21.16;75.71;97588.55;108815;1252;99071;-84
2023/08/17 06:50:01;;;;;;;13.20;9.30;;;;;;;21.26;75.54;97585.87;108733;1251;93645;-84
2023/08/17 06:52:29;;;;;;;10.20;9.20;;;;;;;21.36;75.22;97590.59;108929;1250;93943;-82
2023/08/17 06:54:57;;;;;;;12.70;9.50;;;;;;;21.45;75.16;97592.45;108885;1251;101122;-84
2023/08/17 06:57:24;;;;;;;10.80;8.40;;;;;;;21.52;74.60;97594.63;108843;1251;101293;-82
2023/08/17 06:59:52;;;;;;;10.90;8.80;;;;;;;21.62;74.23;97590.11;108880;1251;100037;-83
2023/08/17 07:02:21;;;;;;;9.90;9.00;;;;;;;21.73;73.99;97585.52;108792;1252;93692;-84
2023/08/17 07:04:48;;;;;;;12.00;9.20;;;;;;;21.86;74.45;97581.14;108873;1251;93523;-83
2023/08/17 07:07:16;;;;;;;13.70;9.20;;;;;;;22.00;74.36;97579.25;108956;1250;99590;-83
2023/08/17 07:09:44;;;;;;;11.00;8.40;;;;;;;22.10;73.84;97578.61;108895;1250;101465;-82
2023/08/17 07:12:11;;;;;;;12.10;9.50;;;;;;;22.17;72.65;97580.95;108791;1252;99898;-82
2023/08/17 07:14:39;;;;;;;10.90;9.10;;;;;;;22.24;72.61;97575.97;108830;1251;93514;-84
2023/08/17 07:17:07;;;;;;;9.90;8.60;;;;;;;22.34;72.75;97574.23;108989;1250;93906;-81
2023/08/17 07:19:34;;;;;;;13.80;9.10;;;;;;;22.43;72.64;97573.02;108839;1251;99692;-83
2023/08/17 07:22:02;;;;;;;11.70;9.10;;;;;;;22.52;72.60;97572.48;108757;1250;100377;-82
2023/08/17 07:24:30;;;;;;;12.70;9.20;;;;;;;22.61;72.38;97576.27;108809;1250;98654;-84
2023/08/17 07:26:57;;;;;;;13.20;9.90;;;;;;;22.70;71.97;97570.83;108664;1251;93982;-84
2023/08/17 07:29:25;;;;;;;10.70;8.90;;;;;;;22.81;71.67;97580.91;108673;1252;93878;-82
2023/08/17 07:31:54;;;;;;;11.30;9.00;;;;;;;22.88;71.02;97580.70;108716;1251;99923;-85
2023/08/17 07:34:21;;;;;;;9.90;8.90;;;;;;;22.96;70.95;97576.50;108795;1252;100566;-86
2023/08/17 07:36:49;;;;;;;12.80;8.40;;;;;;;23.09;70.66;97574.75;108743;1252;98758;-83
2023/08/17 07:39:18;;;;;;;11.30;8.90;;;;;;;23.21;70.66;97580.21;108721;1252;93894;-82
2023/08/17 07:41:46;;;;;;;11.00;8.40;;;;;;;23.40;70.80;97582.65;108913;1251;93564;-85
2023/08/17 07:44:13;;;;;;;14.80;8.80;;;;;;;23.63;70.45;97579.30;108842;1251;99637;-83
2023/08/17 07:46:41;;;;;;;9.50;8.10;;;;;;;23.93;70.10;97576.45;108801;1253;100057;-84
2023/08/17 07:49:09;;;;;;;10.20;7.50;;;;;;;24.32;69.79;97574.90;108746;1253;98653;-83
2023/08/17 07:51:37;;;;;;;9.30;8.40;;;;;;;24.74;69.06;97570.13;108785;1251;93534;-84
2023/08/17 07:54:05;;;;;;;13.30;7.80;;;;;;;25.15;68.28;97570.27;108809;1252;93635;-85
2023/08/17 07:56:32;;;;;;;8.50;6.70;;;;;;;25.56;67.27;97566.48;108794;1252;100087;-83
2023/08/17 07:59:00;;;;;;;9.20;6.70;;;;;;;25.95;66.14;97570.86;108937;1250;101814;-85
2023/08/17 08:01:28;;;;;;;11.30;7.40;;;;;;;26.28;64.24;97571.54;108901;1250;97911;-83
2023/08/17 08:03:55;;;;;;;10.70;6.80;;;;;;;26.52;63.86;97568.87;108757;1251;94244;-83
2023/08/17 08:06:23;;;;;;;9.60;6.90;;;;;;;26.67;63.11;97566.55;108755;1252;95180;-83
2023/08/17 08:08:51;;;;;;;10.80;6.80;;;;;;;26.95;62.61;97568.41;108840;1252;102407;-83
2023/08/17 08:11:18;;;;;;;8.80;6.70;;;;;;;27.27;61.62;97567.07;108838;1251;101715;-83
2023/08/17 08:13:46;;;;;;;9.20;7.10;;;;;;;27.59;60.70;97561.84;108789;1252;98813;-84
2023/08/17 08:16:14;;;;;;;8.40;6.60;;;;;;;27.90;60.02;97557.58;108680;1251;94169;-83
2023/08/17 08:18:41;;;;;;;7.30;6.40;;;;;;;28.11;58.95;97550.84;108828;1251;94305;-85
2023/08/17 08:21:09;;;;;;;8.50;6.70;;;;;;;28.16;59.34;97544.44;108788;1252;110877;-84
2023/08/17 08:23:37;;;;;;;7.90;6.70;;;;;;;28.42;58.51;97539.77;108830;1251;101710;-85
2023/08/17 08:26:05;;;;;;;7.40;6.10;;;;;;;28.76;57.96;97533.96;108861;1251;100096;-84
2023/08/17 08:28:32;;;;;;;11.00;6.80;;;;;;;29.11;57.43;97532.30;108815;1251;94303;-82
2023/08/17 08:31:03;;;;;;;7.90;7.10;;;;;;;29.44;56.15;97530.41;108897;1252;94316;-82
2023/08/17 08:33:31;;;;;;;9.10;6.20;;;;;;;29.77;55.22;97527.36;108811;1252;102091;-81
2023/08/17 08:35:59;;;;;;;9.90;6.80;;;;;;;30.07;54.42;97521.80;108856;1251;99999;-82
2023/08/17 08:38:27;;;;;;;11.00;6.40;;;;;;;30.33;53.53;97514.29;108763;1252;98532;-81
2023/08/17 08:40:54;;;;;;;10.40;7.20;;;;;;;30.61;53.24;97510.30;108865;1252;94187;-81
2023/08/17 08:43:22;;;;;;;12.10;6.30;;;;;;;30.95;52.69;97510.59;108852;1252;94170;-82
2023/08/17 08:45:52;;;;;;;6.90;6.10;;;;;;;31.32;51.93;97510.68;108809;1252;101204;-83
2023/08/17 08:48:23;;;;;;;8.00;6.20;;;;;;;31.65;51.66;97513.23;108804;1251;100391;-83
2023/08/17 08:50:52;;;;;;;9.70;6.00;;;;;;;31.97;50.75;97511.30;108804;1252;98830;-83
2023/08/17 08:53:25;;;;;;;9.70;6.00;;;;;;;32.12;49.80;97512.85;108842;1251;94201;-84
2023/08/17 08:55:58;;;;;;;6.90;6.00;;;;;;;32.27;49.15;97511.59;108884;1251;94140;-82
2023/08/17 08:58:26;;;;;;;8.70;6.20;;;;;;;32.40;48.81;97507.30;108821;1252;100900;-82
2023/08/17 09:00:54;;;;;;;7.40;5.80;;;;;;;32.46;48.56;97510.61;108827;1252;100092;-81
2023/08/17 09:03:22;;;;;;;8.60;6.10;;;;;;;32.54;48.04;97513.41;108842;1252;100160;-82
2023/08/17 09:05:51;;;;;;;6.00;5.20;;;;;;;32.52;47.75;97519.10;108811;1252;94187;-83
2023/08/17 09:08:23;;;;;;;8.00;5.60;;;;;;;32.33;48.66;97517.53;108846;1251;94191;-82
2023/08/17 09:10:51;;;;;;;6.50;5.50;;;;;;;31.99;45.66;97520.13;108837;1252;102329;-81
2023/08/17 09:13:19;;;;;;;8.10;5.60;;;;;;;31.72;47.76;97520.09;108823;1252;100468;-81
2023/08/17 09:15:46;;;;;;;6.70;5.50;;;;;;;31.78;47.97;97513.09;108860;1250;100083;-81
2023/08/17 09:18:14;;;;;;;6.60;5.30;;;;;;;31.80;47.45;97513.37;108779;1251;94178;-82
2023/08/17 09:20:45;;;;;;;5.80;5.30;;;;;;;31.61;47.87;97515.57;108874;1251;94182;-80
2023/08/17 09:23:19;;;;;;;6.90;5.80;;;;;;;31.34;49.33;97516.34;108904;1252;100748;-82
2023/08/17 09:25:48;;;;;;;10.10;5.80;;;;;;;31.10;49.09;97519.77;108747;1253;101724;-81
2023/08/17 09:28:20;;;;;;;6.40;5.50;;;;;;;30.86;49.21;97523.86;108679;1254;107762;-82
2023/08/17 09:31:00;;;;;;;7.90;4.90;;;;;;;30.54;49.03;97535.17;108714;1254;94252;-81
2023/08/17 09:33:30;;;;;;;7.30;5.30;;;;;;;30.24;48.56;97546.24;108736;1253;94191;-81
2023/08/17 09:35:59;;;;;;;4.70;4.20;;;;;;;29.82;48.68;97547.88;108683;1254;101273;-80
2023/08/17 09:38:28;;;;;;;8.70;5.50;;;;;;;29.51;49.02;97552.32;108640;1254;111186;-80
2023/08/17 09:40:56;;;;;;;6.20;5.20;;;;;;;29.31;50.17;97552.35;108648;1254;106445;-80
2023/08/17 09:43:24;;;;;;;6.80;5.90;;;;;;;29.11;51.04;97545.64;108695;1254;94355;-82
2023/08/17 09:45:52;;;;;;;7.80;6.00;;;;;;;28.90;51.75;97541.20;108713;1254;94388;-82
2023/08/17 09:48:20;;;;;;;6.50;5.90;;;;;;;28.68;51.88;97541.49;108689;1254;102561;-83
2023/08/17 09:50:49;;;;;;;7.60;5.30;;;;;;;28.50;52.69;97536.70;108725;1254;101701;-82
2023/08/17 09:53:18;;;;;;;7.90;5.60;;;;;;;28.38;52.86;97534.09;108346;1257;100193;-83
2023/08/17 09:55:47;;;;;;;8.00;5.50;;;;;;;28.28;53.67;97532.42;108332;1257;94296;-81
2023/08/17 09:58:16;;;;;;;6.60;5.70;;;;;;;28.19;54.00;97526.30;108598;1256;94279;-81
2023/08/17 10:00:49;;;;;;;10.20;5.50;;;;;;;28.03;54.81;97524.06;108494;1256;102558;-82
2023/08/17 10:03:18;;;;;;;6.80;5.20;;;;;;;27.84;55.32;97529.77;108595;1255;100461;-82
2023/08/17 10:05:53;;;;;;;5.80;4.30;;;;;;;27.79;54.47;97528.80;108537;1256;99719;-82
2023/08/17 10:08:22;;;;;;;6.80;4.30;;;;;;;27.71;52.73;97530.79;108516;1256;94608;-81
2023/08/17 10:10:50;;;;;;;5.70;3.30;;;;;;;27.61;51.78;97536.23;108541;1255;94301;-83
2023/08/17 10:13:43;;;;;;;6.00;3.00;;;;;;;27.53;51.03;97537.69;108508;1258;102362;-81
2023/08/17 10:16:24;;;;;;;5.50;2.80;;;;;;;27.54;50.34;97547.58;108510;1255;110592;-85
2023/08/17 10:19:00;;;;;;;4.80;2.40;;;;;;;27.52;49.67;97547.95;108568;1254;99819;-84
2023/08/17 10:21:37;;;;;;;4.90;2.50;;;;;;;27.55;49.47;97553.50;108545;1255;95260;-80
2023/08/17 10:24:06;;;;;;;4.10;2.90;;;;;;;27.68;49.34;97564.39;108616;1253;94526;-81
2023/08/17 10:26:34;;;;;;;4.70;2.70;;;;;;;27.97;49.42;97568.14;108847;1252;101121;-83
2023/08/17 10:29:04;;;;;;;3.90;2.60;;;;;;;28.33;49.03;97566.08;108818;1251;100470;-82
2023/08/17 10:31:38;;;;;;;3.20;2.60;;;;;;;28.54;48.51;97563.04;108808;1252;100238;-83
2023/08/17 10:34:07;;;;;;;4.20;2.40;;;;;;;28.69;47.74;97569.27;108790;1252;94298;-82
2023/08/17 10:36:35;;;;;;;3.40;2.70;;;;;;;28.76;47.09;97574.10;108872;1253;94212;-83
2023/08/17 10:39:21;;;;;;;5.00;2.30;;;;;;;28.77;47.03;97583.81;108832;1253;101126;-85
2023/08/17 10:41:50;;;;;;;4.30;2.70;;;;;;;28.72;46.79;97583.42;108845;1253;101599;-82
2023/08/17 10:44:50;;;;;;;4.70;2.90;;;;;;;28.61;46.51;97582.90;108760;1253;100228;-83
2023/08/17 10:47:32;;;;;;;5.30;2.90;;;;;;;28.47;46.59;97581.27;108210;1259;95243;-84
2023/08/17 10:50:05;;;;;;;3.50;2.50;;;;;;;28.37;46.95;97580.08;108261;1258;94227;-84
2023/08/17 10:52:35;;;;;;;5.70;3.50;;;;;;;28.32;47.43;97577.67;108003;1262;101233;-84
2023/08/17 10:55:06;;;;;;;4.80;2.70;;;;;;;28.22;47.81;97579.89;108172;1262;100128;-82
2023/08/17 10:57:36;;;;;;;5.80;2.70;;;;;;;28.14;48.26;97586.36;108080;1261;98755;-85
2023/08/17 11:00:16;;;;;;;7.40;3.00;;;;;;;28.13;48.51;97588.22;108122;1262;94767;-83
2023/08/17 11:02:45;;;;;;;8.50;3.00;;;;;;;28.12;48.74;97590.33;108180;1261;94228;-84
2023/08/17 11:05:13;;;;;;;6.60;3.40;;;;;;;28.06;48.78;97593.35;108183;1262;100982;-81
2023/08/17 11:07:43;;;;;;;3.80;3.40;;;;;;;27.88;49.45;97595.13;108129;1261;101687;-83
2023/08/17 11:10:32;;;;;;;7.30;3.70;;;;;;;27.77;49.44;97599.64;108141;1262;99289;-82
2023/08/17 11:13:01;;;;;;;3.60;2.70;;;;;;;27.63;49.17;97603.16;107933;1265;94346;-83
2023/08/17 11:15:44;;;;;;;4.70;3.00;;;;;;;27.37;48.71;97608.17;107996;1264;96318;-82
2023/08/17 11:18:13;;;;;;;7.10;3.60;;;;;;;27.00;48.78;97619.26;107932;1264;109629;-88
2023/08/17 11:20:42;;;;;;;5.60;2.70;;;;;;;26.68;48.95;97623.48;107976;1265;99031;-86
2023/08/17 11:23:11;;;;;;;7.20;3.40;;;;;;;26.39;49.25;97630.54;108091;1256;100205;-82
2023/08/17 11:25:39;;;;;;;6.60;3.50;;;;;;;26.08;49.62;97637.48;108543;1254;94498;-84
2023/08/17 11:28:08;;;;;;;6.00;3.60;;;;;;;25.80;50.58;97653.60;108516;1256;94298;-89
2023/08/17 11:30:38;;;;;;;8.30;4.50;;;;;;;25.56;51.66;97679.27;108534;1255;100657;-86
2023/08/17 11:33:07;;;;;;;11.50;4.30;;;;;;;25.36;52.99;97695.48;108465;1256;100362;-81
2023/08/17 11:35:36;;;;;;;7.60;3.70;;;;;;;25.14;53.67;97698.41;108552;1255;99947;-86
2023/08/17 11:38:05;;;;;;;6.30;3.90;;;;;;;24.86;54.98;97700.02;108515;1255;94349;-87
2023/08/17 11:40:34;;;;;;;7.70;4.80;;;;;;;24.71;55.94;97699.73;108537;1256;94605;-86
2023/08/17 11:43:02;;;;;;;7.40;4.40;;;;;;;24.62;56.69;97679.76;108539;1256;102324;-86
2023/08/17 11:45:30;;;;;;;9.20;4.40;;;;;;;24.56;57.51;97665.64;108549;1255;109056;-84
2023/08/17 11:47:58;;;;;;;9.50;5.10;;;;;;;24.39;59.76;97675.72;108542;1255;107735;-86
2023/08/17 11:50:26;;;;;;;12.70;4.70;;;;;;;24.02;60.53;97701.80;108499;1253;94216;-83
2023/08/17 11:52:54;;;;;;;8.90;4.50;;;;;;;23.80;61.09;97714.64;108719;1252;94559;-85
2023/08/17 11:55:22;;;;;;;7.10;4.80;;;;;;;23.77;61.70;97723.65;108792;1253;102386;-84
2023/08/17 11:57:49;;;;;;;5.10;4.00;;;;;;;23.76;61.77;97726.69;108887;1251;109333;-83
2023/08/17 12:00:20;;;;;;;4.90;4.00;;;;;;;23.77;62.18;97726.02;108877;1252;100197;-84
2023/08/17 12:02:52;;;;;;;8.30;4.30;;;;;;;23.74;62.55;97728.31;108837;1251;94156;-84
2023/08/17 12:05:27;;;;;;;6.00;4.10;;;;;;;23.68;62.94;97719.36;108915;1252;94195;-83
2023/08/17 12:07:55;;;;;;;7.40;4.20;;;;;;;23.60;63.31;97717.71;108846;1252;102549;-82
2023/08/17 12:10:23;;;;;;;5.10;4.00;;;;;;;23.42;63.75;97716.71;108789;1251;101727;-82
2023/08/17 12:12:51;;;;;;;9.80;4.00;;;;;;;23.35;64.60;97710.38;108826;1252;100186;-84
2023/08/17 12:15:19;;;;;;;5.30;4.30;;;;;;;23.37;64.95;97707.17;108842;1252;94183;-82
2023/08/17 12:17:48;;;;;;;6.20;4.50;;;;;;;23.41;64.89;97692.06;108467;1256;94689;-84
2023/08/17 12:20:20;;;;;;;5.80;4.50;;;;;;;23.43;65.28;97682.88;108502;1254;102454;-83
2023/08/17 12:22:48;;;;;;;6.20;4.50;;;;;;;23.34;65.79;97676.89;108559;1256;101696;-82
2023/08/17 12:25:16;;;;;;;5.10;4.40;;;;;;;23.29;66.24;97668.80;108482;1254;99907;-84
2023/08/17 12:27:44;;;;;;;8.00;4.40;;;;;;;23.25;67.19;97659.11;108525;1256;94307;-83
2023/08/17 12:30:32;;;;;;;7.00;4.40;;;;;;;23.08;67.14;97657.24;108457;1257;94463;-83
2023/08/17 12:33:00;;;;;;;6.70;4.60;;;;;;;23.08;67.59;97649.37;108504;1259;102663;-83
2023/08/17 12:35:28;;;;;;;5.10;4.40;;;;;;;23.15;67.63;97643.83;108413;1256;101770;-83
2023/08/17 12:37:56;;;;;;;5.50;5.00;;;;;;;23.21;67.30;97641.52;108456;1256;99729;-83
2023/08/17 12:40:24;;;;;;;10.60;5.00;;;;;;;23.27;67.32;97640.92;108420;1256;94248;-82
2023/08/17 12:42:52;;;;;;;8.50;5.40;;;;;;;23.28;68.21;97634.65;108413;1256;94480;-82
2023/08/17 12:45:19;;;;;;;6.50;5.40;;;;;;;23.22;68.45;97634.23;108476;1256;102628;-82
2023/08/17 12:47:47;;;;;;;7.60;4.90;;;;;;;23.27;68.64;97633.16;108625;1256;101554;-83